sensor_id;sensor_type;location;lat;lon;timestamp;pressure;altitude;pressure_sealevel;temperature;humidity
72640;BME280;60683;51.730;8.762;2024-02-26T00:02:29;98884.31;;;3.25;100.00
72640;BME280;60683;51.730;8.762;2024-02-26T00:05:15;98873.16;;;3.41;100.00
72640;BME280;60683;51.730;8.762;2024-02-26T00:08:01;98874.41;;;3.39;100.00
72640;BME280;60683;51.730;8.762;2024-02-26T00:10:46;98879.88;;;3.44;100.00
72640;BME280;60683;51.730;8.762;2024-02-26T00:13:31;98869.91;;;3.39;100.00
72640;BME280;60683;51.730;8.762;2024-02-26T00:16:18;98878.19;;;3.24;100.00
72640;BME280;60683;51.730;8.762;2024-02-26T00:19:03;98876.56;;;3.23;100.00
72640;BME280;60683;51.730;8.762;2024-02-26T00:21:50;98875.75;;;3.23;100.00
72640;BME280;60683;51.730;8.762;2024-02-26T00:24:35;98874.72;;;3.24;100.00
72640;BME280;60683;51.730;8.762;2024-02-26T00:27:20;98878.47;;;3.41;100.00
72640;BME280;60683;51.730;8.762;2024-02-26T00:30:06;98869.25;;;3.44;100.00
72640;BME280;60683;51.730;8.762;2024-02-26T00:32:53;98869.03;;;3.45;100.00
72640;BME280;60683;51.730;8.762;2024-02-26T00:35:38;98867.88;;;3.59;100.00
72640;BME280;60683;51.730;8.762;2024-02-26T00:38:23;98868.31;;;3.56;100.00
72640;BME280;60683;51.730;8.762;2024-02-26T00:41:09;98867.34;;;3.69;100.00
72640;BME280;60683;51.730;8.762;2024-02-26T00:43:54;98857.84;;;3.61;100.00
72640;BME280;60683;51.730;8.762;2024-02-26T00:46:39;98854.28;;;3.49;100.00
72640;BME280;60683;51.730;8.762;2024-02-26T00:49:25;98852.44;;;3.50;100.00
72640;BME280;60683;51.730;8.762;2024-02-26T00:52:10;98832.88;;;3.44;100.00
72640;BME280;60683;51.730;8.762;2024-02-26T00:54:56;98840.34;;;3.54;100.00
72640;BME280;60683;51.730;8.762;2024-02-26T00:57:41;98838.03;;;3.39;100.00
72640;BME280;60683;51.730;8.762;2024-02-26T01:00:26;98840.09;;;3.37;100.00
72640;BME280;60683;51.730;8.762;2024-02-26T01:03:12;98835.53;;;3.44;100.00
72640;BME280;60683;51.730;8.762;2024-02-26T01:05:59;98835.09;;;3.22;100.00
72640;BME280;60683;51.730;8.762;2024-02-26T01:08:44;98836.03;;;3.10;100.00
72640;BME280;60683;51.730;8.762;2024-02-26T01:11:29;98833.53;;;3.15;100.00
72640;BME280;60683;51.730;8.762;2024-02-26T01:14:14;98832.88;;;2.94;100.00
72640;BME280;60683;51.730;8.762;2024-02-26T01:16:59;98831.13;;;2.82;100.00
72640;BME280;60683;51.730;8.762;2024-02-26T01:19:44;98820.06;;;2.91;100.00
72640;BME280;60683;51.730;8.762;2024-02-26T01:22:31;98814.09;;;2.96;100.00
72640;BME280;60683;51.730;8.762;2024-02-26T01:25:17;98812.25;;;2.96;100.00
72640;BME280;60683;51.730;8.762;2024-02-26T01:28:02;98814.06;;;3.21;100.00
72640;BME280;60683;51.730;8.762;2024-02-26T01:30:48;98813.97;;;3.34;100.00
72640;BME280;60683;51.730;8.762;2024-02-26T01:33:33;98806.81;;;3.35;100.00
72640;BME280;60683;51.730;8.762;2024-02-26T01:36:18;98805.94;;;3.16;100.00
72640;BME280;60683;51.730;8.762;2024-02-26T01:39:05;98810.59;;;3.45;100.00
72640;BME280;60683;51.730;8.762;2024-02-26T01:41:51;98808.09;;;3.50;100.00
72640;BME280;60683;51.730;8.762;2024-02-26T01:44:36;98801.06;;;3.38;100.00
72640;BME280;60683;51.730;8.762;2024-02-26T01:47:22;98802.94;;;3.30;100.00
72640;BME280;60683;51.730;8.762;2024-02-26T01:50:08;98810.09;;;3.30;100.00
72640;BME280;60683;51.730;8.762;2024-02-26T01:52:54;98809.50;;;3.28;100.00
72640;BME280;60683;51.730;8.762;2024-02-26T01:55:41;98804.19;;;3.28;100.00
72640;BME280;60683;51.730;8.762;2024-02-26T01:58:27;98801.31;;;3.29;100.00
72640;BME280;60683;51.730;8.762;2024-02-26T02:01:15;98798.88;;;3.28;100.00
72640;BME280;60683;51.730;8.762;2024-02-26T02:04:01;98800.91;;;3.69;100.00
72640;BME280;60683;51.730;8.762;2024-02-26T02:06:47;98797.16;;;3.95;100.00
72640;BME280;60683;51.730;8.762;2024-02-26T02:09:33;98793.28;;;4.39;97.53
72640;BME280;60683;51.730;8.762;2024-02-26T02:12:21;98795.00;;;4.75;94.15
72640;BME280;60683;51.730;8.762;2024-02-26T02:15:07;98797.78;;;4.80;93.78
72640;BME280;60683;51.730;8.762;2024-02-26T02:17:52;98791.22;;;4.94;92.14
72640;BME280;60683;51.730;8.762;2024-02-26T02:20:39;98796.78;;;5.05;91.09
72640;BME280;60683;51.730;8.762;2024-02-26T02:23:24;98802.72;;;5.18;90.08
72640;BME280;60683;51.730;8.762;2024-02-26T02:26:10;98800.72;;;5.25;88.81
72640;BME280;60683;51.730;8.762;2024-02-26T02:28:56;98795.97;;;5.27;88.45
72640;BME280;60683;51.730;8.762;2024-02-26T02:31:42;98802.34;;;5.26;88.53
72640;BME280;60683;51.730;8.762;2024-02-26T02:34:27;98801.31;;;5.39;87.37
72640;BME280;60683;51.730;8.762;2024-02-26T02:37:14;98793.56;;;5.38;87.27
72640;BME280;60683;51.730;8.762;2024-02-26T02:39:59;98802.94;;;5.40;87.02
72640;BME280;60683;51.730;8.762;2024-02-26T02:42:45;98804.91;;;5.45;86.64
72640;BME280;60683;51.730;8.762;2024-02-26T02:45:30;98807.56;;;5.56;85.89
72640;BME280;60683;51.730;8.762;2024-02-26T02:48:15;98805.13;;;5.55;86.20
72640;BME280;60683;51.730;8.762;2024-02-26T02:51:01;98803.41;;;5.49;86.71
72640;BME280;60683;51.730;8.762;2024-02-26T02:53:48;98807.47;;;5.51;86.55
72640;BME280;60683;51.730;8.762;2024-02-26T02:56:33;98799.34;;;5.35;87.83
72640;BME280;60683;51.730;8.762;2024-02-26T02:59:18;98802.94;;;5.40;87.32
72640;BME280;60683;51.730;8.762;2024-02-26T03:02:04;98800.97;;;5.36;87.94
72640;BME280;60683;51.730;8.762;2024-02-26T03:04:51;98799.69;;;5.38;87.92
72640;BME280;60683;51.730;8.762;2024-02-26T03:07:36;98801.91;;;5.41;87.15
72640;BME280;60683;51.730;8.762;2024-02-26T03:10:23;98799.22;;;5.41;87.72
72640;BME280;60683;51.730;8.762;2024-02-26T03:13:08;98805.25;;;5.48;86.75
72640;BME280;60683;51.730;8.762;2024-02-26T03:15:54;98806.28;;;5.47;87.03
72640;BME280;60683;51.730;8.762;2024-02-26T03:18:39;98815.56;;;5.45;87.25
72640;BME280;60683;51.730;8.762;2024-02-26T03:21:25;98811.84;;;5.46;87.40
72640;BME280;60683;51.730;8.762;2024-02-26T03:24:10;98816.16;;;5.47;86.87
72640;BME280;60683;51.730;8.762;2024-02-26T03:26:57;98813.13;;;5.43;87.53
72640;BME280;60683;51.730;8.762;2024-02-26T03:29:42;98821.94;;;5.44;87.21
72640;BME280;60683;51.730;8.762;2024-02-26T03:32:27;98819.38;;;5.49;86.68
72640;BME280;60683;51.730;8.762;2024-02-26T03:35:12;98814.19;;;5.54;86.17
72640;BME280;60683;51.730;8.762;2024-02-26T03:37:57;98817.66;;;5.54;86.28
72640;BME280;60683;51.730;8.762;2024-02-26T03:40:42;98824.25;;;5.52;87.05
72640;BME280;60683;51.730;8.762;2024-02-26T03:43:29;98822.97;;;5.54;86.23
72640;BME280;60683;51.730;8.762;2024-02-26T03:46:14;98820.66;;;5.58;86.14
72640;BME280;60683;51.730;8.762;2024-02-26T03:48:59;98832.84;;;5.54;86.70
72640;BME280;60683;51.730;8.762;2024-02-26T03:51:44;98829.34;;;5.53;86.82
72640;BME280;60683;51.730;8.762;2024-02-26T03:54:30;98833.75;;;5.59;85.68
72640;BME280;60683;51.730;8.762;2024-02-26T03:57:15;98828.78;;;5.63;85.16
72640;BME280;60683;51.730;8.762;2024-02-26T04:00:02;98835.50;;;5.65;85.29
72640;BME280;60683;51.730;8.762;2024-02-26T04:02:47;98835.97;;;5.62;85.36
72640;BME280;60683;51.730;8.762;2024-02-26T04:05:33;98834.91;;;5.63;85.09
72640;BME280;60683;51.730;8.762;2024-02-26T04:08:18;98831.69;;;5.61;85.59
72640;BME280;60683;51.730;8.762;2024-02-26T04:11:04;98826.69;;;5.65;85.04
72640;BME280;60683;51.730;8.762;2024-02-26T04:13:51;98833.25;;;5.74;84.35
72640;BME280;60683;51.730;8.762;2024-02-26T04:16:38;98828.44;;;5.71;84.88
72640;BME280;60683;51.730;8.762;2024-02-26T04:19:23;98828.28;;;5.78;84.30
72640;BME280;60683;51.730;8.762;2024-02-26T04:22:09;98827.69;;;5.76;84.38
72640;BME280;60683;51.730;8.762;2024-02-26T04:24:55;98827.22;;;5.79;84.11
72640;BME280;60683;51.730;8.762;2024-02-26T04:27:41;98823.63;;;5.85;83.35
72640;BME280;60683;51.730;8.762;2024-02-26T04:30:26;98834.41;;;5.78;85.08
72640;BME280;60683;51.730;8.762;2024-02-26T04:33:12;98835.00;;;5.80;84.20
72640;BME280;60683;51.730;8.762;2024-02-26T04:35:58;98847.88;;;5.83;83.94
72640;BME280;60683;51.730;8.762;2024-02-26T04:38:44;98855.06;;;5.83;83.93
72640;BME280;60683;51.730;8.762;2024-02-26T04:41:29;98863.41;;;5.75;85.08
72640;BME280;60683;51.730;8.762;2024-02-26T04:44:15;98877.69;;;5.69;85.65
72640;BME280;60683;51.730;8.762;2024-02-26T04:47:00;98879.63;;;5.73;84.81
72640;BME280;60683;51.730;8.762;2024-02-26T04:49:47;98880.94;;;5.71;85.04
72640;BME280;60683;51.730;8.762;2024-02-26T04:52:32;98875.03;;;5.69;85.31
72640;BME280;60683;51.730;8.762;2024-02-26T04:55:19;98880.59;;;5.67;84.97
72640;BME280;60683;51.730;8.762;2024-02-26T04:58:05;98875.16;;;5.62;85.27
72640;BME280;60683;51.730;8.762;2024-02-26T05:00:50;98876.88;;;5.56;85.98
72640;BME280;60683;51.730;8.762;2024-02-26T05:03:36;98875.38;;;5.49;87.39
72640;BME280;60683;51.730;8.762;2024-02-26T05:06:23;98876.75;;;5.40;89.39
72640;BME280;60683;51.730;8.762;2024-02-26T05:09:08;98888.09;;;5.35;88.37
72640;BME280;60683;51.730;8.762;2024-02-26T05:11:54;98881.72;;;5.36;88.58
72640;BME280;60683;51.730;8.762;2024-02-26T05:14:39;98870.13;;;5.30;89.76
72640;BME280;60683;51.730;8.762;2024-02-26T05:17:24;98875.19;;;5.20;91.92
72640;BME280;60683;51.730;8.762;2024-02-26T05:20:10;98873.94;;;5.23;90.72
72640;BME280;60683;51.730;8.762;2024-02-26T05:22:56;98864.09;;;5.35;90.37
72640;BME280;60683;51.730;8.762;2024-02-26T05:25:43;98856.22;;;5.40;89.91
72640;BME280;60683;51.730;8.762;2024-02-26T05:28:31;98861.22;;;5.60;88.10
72640;BME280;60683;51.730;8.762;2024-02-26T05:31:16;98851.03;;;5.57;88.57
72640;BME280;60683;51.730;8.762;2024-02-26T05:34:02;98851.72;;;5.64;87.88
72640;BME280;60683;51.730;8.762;2024-02-26T05:36:47;98852.97;;;5.73;86.76
72640;BME280;60683;51.730;8.762;2024-02-26T05:39:34;98845.44;;;5.82;86.22
72640;BME280;60683;51.730;8.762;2024-02-26T05:42:19;98844.16;;;5.96;84.63
72640;BME280;60683;51.730;8.762;2024-02-26T05:45:05;98863.16;;;5.88;84.20
72640;BME280;60683;51.730;8.762;2024-02-26T05:47:51;98873.84;;;5.76;84.95
72640;BME280;60683;51.730;8.762;2024-02-26T05:50:37;98877.56;;;5.63;86.50
72640;BME280;60683;51.730;8.762;2024-02-26T05:53:22;98882.91;;;5.63;86.89
72640;BME280;60683;51.730;8.762;2024-02-26T05:56:09;98881.97;;;5.70;85.48
72640;BME280;60683;51.730;8.762;2024-02-26T05:58:54;98873.72;;;5.83;85.09
72640;BME280;60683;51.730;8.762;2024-02-26T06:01:39;98877.56;;;5.87;84.49
72640;BME280;60683;51.730;8.762;2024-02-26T06:04:25;98875.13;;;5.85;84.16
72640;BME280;60683;51.730;8.762;2024-02-26T06:07:10;98886.25;;;5.82;84.02
72640;BME280;60683;51.730;8.762;2024-02-26T06:09:55;98887.88;;;5.83;84.42
72640;BME280;60683;51.730;8.762;2024-02-26T06:12:42;98895.63;;;5.73;85.02
72640;BME280;60683;51.730;8.762;2024-02-26T06:15:27;98893.22;;;5.72;85.21
72640;BME280;60683;51.730;8.762;2024-02-26T06:18:13;98895.31;;;5.70;85.65
72640;BME280;60683;51.730;8.762;2024-02-26T06:20:58;98894.38;;;5.76;84.74
72640;BME280;60683;51.730;8.762;2024-02-26T06:23:44;98899.69;;;5.76;84.85
72640;BME280;60683;51.730;8.762;2024-02-26T06:26:29;98898.41;;;5.78;84.47
72640;BME280;60683;51.730;8.762;2024-02-26T06:29:16;98904.78;;;5.77;84.66
72640;BME280;60683;51.730;8.762;2024-02-26T06:32:01;98899.03;;;5.69;84.97
72640;BME280;60683;51.730;8.762;2024-02-26T06:34:47;98908.41;;;5.71;84.81
72640;BME280;60683;51.730;8.762;2024-02-26T06:37:33;98909.22;;;5.60;85.58
72640;BME280;60683;51.730;8.762;2024-02-26T06:40:18;98910.25;;;5.59;85.36
72640;BME280;60683;51.730;8.762;2024-02-26T06:43:04;98910.84;;;5.61;85.43
72640;BME280;60683;51.730;8.762;2024-02-26T06:45:50;98916.66;;;5.70;83.81
72640;BME280;60683;51.730;8.762;2024-02-26T06:48:35;98911.63;;;5.73;83.55
72640;BME280;60683;51.730;8.762;2024-02-26T06:51:21;98915.03;;;5.69;84.15
72640;BME280;60683;51.730;8.762;2024-02-26T06:54:06;98934.16;;;5.65;84.02
72640;BME280;60683;51.730;8.762;2024-02-26T06:56:53;98931.59;;;5.71;83.26
72640;BME280;60683;51.730;8.762;2024-02-26T06:59:39;98934.97;;;5.66;83.83
72640;BME280;60683;51.730;8.762;2024-02-26T07:02:25;98939.94;;;5.62;84.16
72640;BME280;60683;51.730;8.762;2024-02-26T07:05:11;98935.06;;;5.59;84.78
72640;BME280;60683;51.730;8.762;2024-02-26T07:07:57;98946.19;;;5.56;85.14
72640;BME280;60683;51.730;8.762;2024-02-26T07:10:42;98948.28;;;5.54;85.75
72640;BME280;60683;51.730;8.762;2024-02-26T07:13:28;98952.88;;;5.47;86.60
72640;BME280;60683;51.730;8.762;2024-02-26T07:16:13;98948.38;;;5.48;86.35
72640;BME280;60683;51.730;8.762;2024-02-26T07:19:00;98960.66;;;5.49;86.81
72640;BME280;60683;51.730;8.762;2024-02-26T07:21:45;98968.44;;;5.50;88.15
72640;BME280;60683;51.730;8.762;2024-02-26T07:24:30;98965.44;;;5.58;87.11
72640;BME280;60683;51.730;8.762;2024-02-26T07:27:15;98970.88;;;5.52;87.42
72640;BME280;60683;51.730;8.762;2024-02-26T07:30:02;98977.25;;;5.62;86.40
72640;BME280;60683;51.730;8.762;2024-02-26T07:32:47;98981.66;;;5.57;87.40
72640;BME280;60683;51.730;8.762;2024-02-26T07:35:34;98980.50;;;5.64;87.75
72640;BME280;60683;51.730;8.762;2024-02-26T07:38:20;98971.47;;;5.65;86.88
72640;BME280;60683;51.730;8.762;2024-02-26T07:41:07;98974.94;;;5.66;86.32
72640;BME280;60683;51.730;8.762;2024-02-26T07:43:53;98976.22;;;5.75;86.01
72640;BME280;60683;51.730;8.762;2024-02-26T07:46:38;98985.03;;;5.76;85.82
72640;BME280;60683;51.730;8.762;2024-02-26T07:49:23;98985.25;;;5.74;86.64
72640;BME280;60683;51.730;8.762;2024-02-26T07:52:10;98982.34;;;5.76;86.36
72640;BME280;60683;51.730;8.762;2024-02-26T07:54:55;98985.03;;;5.87;86.65
72640;BME280;60683;51.730;8.762;2024-02-26T07:57:42;98990.59;;;5.86;86.10
72640;BME280;60683;51.730;8.762;2024-02-26T08:00:27;98995.34;;;5.84;87.21
72640;BME280;60683;51.730;8.762;2024-02-26T08:03:13;98988.63;;;5.81;87.38
72640;BME280;60683;51.730;8.762;2024-02-26T08:05:59;99001.78;;;5.94;86.80
72640;BME280;60683;51.730;8.762;2024-02-26T08:08:46;99012.81;;;5.98;86.82
72640;BME280;60683;51.730;8.762;2024-02-26T08:11:31;99010.25;;;6.03;86.80
72640;BME280;60683;51.730;8.762;2024-02-26T08:14:16;99017.69;;;6.13;87.53
72640;BME280;60683;51.730;8.762;2024-02-26T08:17:02;99017.81;;;6.18;87.18
72640;BME280;60683;51.730;8.762;2024-02-26T08:19:47;99018.75;;;6.23;86.48
72640;BME280;60683;51.730;8.762;2024-02-26T08:22:32;99025.34;;;6.32;85.20
72640;BME280;60683;51.730;8.762;2024-02-26T08:25:19;99022.19;;;6.36;85.72
72640;BME280;60683;51.730;8.762;2024-02-26T08:28:05;99026.97;;;6.34;86.01
72640;BME280;60683;51.730;8.762;2024-02-26T08:30:51;99025.56;;;6.43;85.23
72640;BME280;60683;51.730;8.762;2024-02-26T08:33:36;99024.06;;;6.47;86.38
72640;BME280;60683;51.730;8.762;2024-02-26T08:36:21;99034.03;;;6.51;85.89
72640;BME280;60683;51.730;8.762;2024-02-26T08:39:06;99022.19;;;6.47;85.35
72640;BME280;60683;51.730;8.762;2024-02-26T08:41:54;99023.25;;;6.46;85.53
72640;BME280;60683;51.730;8.762;2024-02-26T08:44:39;99025.66;;;6.59;85.27
72640;BME280;60683;51.730;8.762;2024-02-26T08:47:25;99029.13;;;6.72;84.86
72640;BME280;60683;51.730;8.762;2024-02-26T08:50:10;99021.53;;;6.80;84.10
72640;BME280;60683;51.730;8.762;2024-02-26T08:52:56;99026.25;;;7.02;83.66
72640;BME280;60683;51.730;8.762;2024-02-26T08:55:41;99030.28;;;7.16;82.78
72640;BME280;60683;51.730;8.762;2024-02-26T08:58:28;99030.47;;;7.26;81.46
72640;BME280;60683;51.730;8.762;2024-02-26T09:01:14;99029.94;;;7.41;80.47
72640;BME280;60683;51.730;8.762;2024-02-26T09:04:00;99023.34;;;7.60;79.70
72640;BME280;60683;51.730;8.762;2024-02-26T09:06:45;99021.66;;;7.71;79.55
72640;BME280;60683;51.730;8.762;2024-02-26T09:09:30;99023.34;;;7.77;80.19
72640;BME280;60683;51.730;8.762;2024-02-26T09:12:16;99030.38;;;7.83;80.05
72640;BME280;60683;51.730;8.762;2024-02-26T09:15:04;99018.41;;;8.02;77.87
72640;BME280;60683;51.730;8.762;2024-02-26T09:17:49;99022.53;;;8.26;78.30
72640;BME280;60683;51.730;8.762;2024-02-26T09:20:35;99020.41;;;8.45;74.68
72640;BME280;60683;51.730;8.762;2024-02-26T09:23:21;99015.28;;;8.44;75.25
72640;BME280;60683;51.730;8.762;2024-02-26T09:26:07;99016.41;;;8.48;73.33
72640;BME280;60683;51.730;8.762;2024-02-26T09:28:53;99021.69;;;8.59;72.17
72640;BME280;60683;51.730;8.762;2024-02-26T09:31:40;99027.66;;;8.67;71.91
72640;BME280;60683;51.730;8.762;2024-02-26T09:34:26;99022.41;;;8.55;73.54
72640;BME280;60683;51.730;8.762;2024-02-26T09:37:11;99026.44;;;8.74;73.11
72640;BME280;60683;51.730;8.762;2024-02-26T09:39:57;99019.50;;;9.00;70.69
72640;BME280;60683;51.730;8.762;2024-02-26T09:42:44;99021.06;;;9.18;71.24
72640;BME280;60683;51.730;8.762;2024-02-26T09:45:30;99020.13;;;9.07;70.19
72640;BME280;60683;51.730;8.762;2024-02-26T09:48:19;99032.41;;;9.25;68.50
72640;BME280;60683;51.730;8.762;2024-02-26T09:51:05;99030.91;;;9.34;68.68
72640;BME280;60683;51.730;8.762;2024-02-26T09:53:51;99031.16;;;9.33;67.32
72640;BME280;60683;51.730;8.762;2024-02-26T09:56:39;99033.47;;;9.24;67.01
72640;BME280;60683;51.730;8.762;2024-02-26T09:59:24;99037.44;;;9.48;65.90
72640;BME280;60683;51.730;8.762;2024-02-26T10:02:13;99030.47;;;9.47;64.22
72640;BME280;60683;51.730;8.762;2024-02-26T10:05:02;99042.25;;;9.46;63.19
72640;BME280;60683;51.730;8.762;2024-02-26T10:07:49;99041.81;;;9.54;64.09
72640;BME280;60683;51.730;8.762;2024-02-26T10:10:36;99055.16;;;9.49;63.90
72640;BME280;60683;51.730;8.762;2024-02-26T10:13:22;99051.47;;;9.55;63.85
72640;BME280;60683;51.730;8.762;2024-02-26T10:16:08;99057.72;;;9.34;64.42
72640;BME280;60683;51.730;8.762;2024-02-26T10:18:54;99056.50;;;9.47;64.82
72640;BME280;60683;51.730;8.762;2024-02-26T10:21:41;99064.41;;;9.37;63.90
72640;BME280;60683;51.730;8.762;2024-02-26T10:24:29;99053.34;;;9.28;66.25
72640;BME280;60683;51.730;8.762;2024-02-26T10:27:15;99053.00;;;9.46;66.48
72640;BME280;60683;51.730;8.762;2024-02-26T10:30:02;99053.22;;;9.18;67.03
72640;BME280;60683;51.730;8.762;2024-02-26T10:32:48;99060.78;;;9.21;67.08
72640;BME280;60683;51.730;8.762;2024-02-26T10:35:34;99071.22;;;9.44;67.21
72640;BME280;60683;51.730;8.762;2024-02-26T10:38:26;99065.06;;;9.22;67.04
72640;BME280;60683;51.730;8.762;2024-02-26T10:41:13;99080.66;;;9.25;67.15
72640;BME280;60683;51.730;8.762;2024-02-26T10:43:59;99080.56;;;9.42;66.94
72640;BME280;60683;51.730;8.762;2024-02-26T10:46:46;99080.41;;;9.26;66.54
72640;BME280;60683;51.730;8.762;2024-02-26T10:49:35;99078.81;;;9.52;66.87
72640;BME280;60683;51.730;8.762;2024-02-26T10:52:20;99082.56;;;9.51;67.12
72640;BME280;60683;51.730;8.762;2024-02-26T10:55:15;99093.78;;;9.70;66.26
72640;BME280;60683;51.730;8.762;2024-02-26T10:58:02;99098.53;;;9.41;66.37
72640;BME280;60683;51.730;8.762;2024-02-26T11:00:49;99101.28;;;9.46;67.32
72640;BME280;60683;51.730;8.762;2024-02-26T11:03:36;99093.59;;;9.55;67.45
72640;BME280;60683;51.730;8.762;2024-02-26T11:06:23;99090.84;;;9.23;67.73
72640;BME280;60683;51.730;8.762;2024-02-26T11:09:11;99102.81;;;9.15;69.71
72640;BME280;60683;51.730;8.762;2024-02-26T11:11:59;99103.13;;;9.19;69.74
72640;BME280;60683;51.730;8.762;2024-02-26T11:14:46;99101.50;;;9.18;68.92
72640;BME280;60683;51.730;8.762;2024-02-26T11:17:32;99099.19;;;9.05;70.51
72640;BME280;60683;51.730;8.762;2024-02-26T11:20:19;99099.25;;;9.10;70.40
72640;BME280;60683;51.730;8.762;2024-02-26T11:23:06;99110.59;;;9.17;71.39
72640;BME280;60683;51.730;8.762;2024-02-26T11:25:53;99103.25;;;9.29;71.36
72640;BME280;60683;51.730;8.762;2024-02-26T11:28:42;99107.72;;;9.23;71.27
72640;BME280;60683;51.730;8.762;2024-02-26T11:31:28;99099.88;;;9.17;70.70
72640;BME280;60683;51.730;8.762;2024-02-26T11:34:14;99104.19;;;9.18;70.86
72640;BME280;60683;51.730;8.762;2024-02-26T11:37:09;99103.28;;;9.12;70.85
72640;BME280;60683;51.730;8.762;2024-02-26T11:39:54;99104.50;;;9.21;72.09
72640;BME280;60683;51.730;8.762;2024-02-26T11:42:43;99104.19;;;9.18;71.21
72640;BME280;60683;51.730;8.762;2024-02-26T11:45:50;99108.47;;;9.19;70.83
72640;BME280;60683;51.730;8.762;2024-02-26T11:48:36;99096.44;;;9.21;71.05
72640;BME280;60683;51.730;8.762;2024-02-26T11:51:25;99097.25;;;9.22;71.54
72640;BME280;60683;51.730;8.762;2024-02-26T11:54:11;99097.25;;;9.22;71.87
72640;BME280;60683;51.730;8.762;2024-02-26T11:56:57;99094.44;;;9.34;72.86
72640;BME280;60683;51.730;8.762;2024-02-26T11:59:44;99104.88;;;9.30;72.51
72640;BME280;60683;51.730;8.762;2024-02-26T12:02:44;99115.69;;;9.40;73.01
72640;BME280;60683;51.730;8.762;2024-02-26T12:05:32;99115.06;;;9.55;71.62
72640;BME280;60683;51.730;8.762;2024-02-26T12:08:21;99112.50;;;9.65;71.26
72640;BME280;60683;51.730;8.762;2024-02-26T12:11:14;99125.84;;;9.60;72.00
72640;BME280;60683;51.730;8.762;2024-02-26T12:13:59;99126.41;;;9.40;72.90
72640;BME280;60683;51.730;8.762;2024-02-26T12:16:45;99111.22;;;9.24;73.70
72640;BME280;60683;51.730;8.762;2024-02-26T12:19:32;99115.28;;;9.26;74.36
72640;BME280;60683;51.730;8.762;2024-02-26T12:22:19;99117.78;;;9.33;74.34
72640;BME280;60683;51.730;8.762;2024-02-26T12:25:04;99116.91;;;9.27;75.04
72640;BME280;60683;51.730;8.762;2024-02-26T12:27:50;99123.63;;;9.30;76.24
72640;BME280;60683;51.730;8.762;2024-02-26T12:30:35;99119.03;;;9.25;76.08
72640;BME280;60683;51.730;8.762;2024-02-26T12:33:20;99120.75;;;9.15;77.23
72640;BME280;60683;51.730;8.762;2024-02-26T12:36:08;99122.44;;;9.21;77.92
72640;BME280;60683;51.730;8.762;2024-02-26T12:38:53;99128.03;;;8.98;77.65
72640;BME280;60683;51.730;8.762;2024-02-26T12:41:38;99138.75;;;8.98;78.48
72640;BME280;60683;51.730;8.762;2024-02-26T12:44:24;99132.41;;;9.04;78.42
72640;BME280;60683;51.730;8.762;2024-02-26T12:47:10;99135.44;;;9.29;78.08
72640;BME280;60683;51.730;8.762;2024-02-26T12:50:00;99144.25;;;9.08;79.28
72640;BME280;60683;51.730;8.762;2024-02-26T12:52:51;99132.81;;;9.34;79.03
72640;BME280;60683;51.730;8.762;2024-02-26T12:55:36;99153.34;;;9.07;79.79
72640;BME280;60683;51.730;8.762;2024-02-26T12:58:24;99148.91;;;8.95;79.73
72640;BME280;60683;51.730;8.762;2024-02-26T13:01:14;99152.66;;;8.94;79.88
72640;BME280;60683;51.730;8.762;2024-02-26T13:04:00;99157.28;;;8.99;79.90
72640;BME280;60683;51.730;8.762;2024-02-26T13:06:50;99160.19;;;8.98;80.01
72640;BME280;60683;51.730;8.762;2024-02-26T13:09:38;99169.06;;;8.98;80.09
72640;BME280;60683;51.730;8.762;2024-02-26T13:12:23;99171.06;;;9.08;78.93
72640;BME280;60683;51.730;8.762;2024-02-26T13:15:14;99185.78;;;9.05;79.06
72640;BME280;60683;51.730;8.762;2024-02-26T13:18:09;99181.00;;;8.90;79.21
72640;BME280;60683;51.730;8.762;2024-02-26T13:20:54;99186.97;;;8.76;79.70
72640;BME280;60683;51.730;8.762;2024-02-26T13:23:41;99185.09;;;8.76;79.86
72640;BME280;60683;51.730;8.762;2024-02-26T13:26:28;99177.75;;;8.88;80.59
72640;BME280;60683;51.730;8.762;2024-02-26T13:29:17;99187.41;;;8.89;78.76
72640;BME280;60683;51.730;8.762;2024-02-26T13:32:03;99195.81;;;8.76;78.52
72640;BME280;60683;51.730;8.762;2024-02-26T13:34:49;99191.34;;;8.82;78.25
72640;BME280;60683;51.730;8.762;2024-02-26T13:37:34;99190.66;;;8.91;79.49
72640;BME280;60683;51.730;8.762;2024-02-26T13:40:20;99188.66;;;8.82;77.98
72640;BME280;60683;51.730;8.762;2024-02-26T13:43:07;99194.56;;;8.84;78.87
72640;BME280;60683;51.730;8.762;2024-02-26T13:45:52;99202.16;;;8.70;78.65
72640;BME280;60683;51.730;8.762;2024-02-26T13:48:38;99194.44;;;8.74;78.91
72640;BME280;60683;51.730;8.762;2024-02-26T13:51:23;99195.09;;;8.81;79.33
72640;BME280;60683;51.730;8.762;2024-02-26T13:54:09;99207.09;;;8.78;79.27
72640;BME280;60683;51.730;8.762;2024-02-26T13:56:54;99211.63;;;8.94;79.01
72640;BME280;60683;51.730;8.762;2024-02-26T13:59:41;99220.22;;;8.96;77.74
72640;BME280;60683;51.730;8.762;2024-02-26T14:02:26;99231.91;;;8.90;77.38
72640;BME280;60683;51.730;8.762;2024-02-26T14:05:12;99236.34;;;8.80;77.13
72640;BME280;60683;51.730;8.762;2024-02-26T14:07:58;99233.25;;;8.71;77.95
72640;BME280;60683;51.730;8.762;2024-02-26T14:10:43;99232.09;;;8.67;77.62
72640;BME280;60683;51.730;8.762;2024-02-26T14:13:28;99230.81;;;8.70;77.50
72640;BME280;60683;51.730;8.762;2024-02-26T14:16:15;99233.97;;;8.67;77.41
72640;BME280;60683;51.730;8.762;2024-02-26T14:19:00;99238.44;;;8.61;78.73
72640;BME280;60683;51.730;8.762;2024-02-26T14:21:46;99233.63;;;8.63;77.77
72640;BME280;60683;51.730;8.762;2024-02-26T14:24:31;99235.09;;;8.71;77.37
72640;BME280;60683;51.730;8.762;2024-02-26T14:27:17;99243.22;;;8.76;77.82
72640;BME280;60683;51.730;8.762;2024-02-26T14:30:07;99249.47;;;8.65;76.59
72640;BME280;60683;51.730;8.762;2024-02-26T14:32:54;99256.13;;;8.62;76.86
72640;BME280;60683;51.730;8.762;2024-02-26T14:35:39;99256.22;;;8.67;76.29
72640;BME280;60683;51.730;8.762;2024-02-26T14:38:24;99266.13;;;8.67;77.80
72640;BME280;60683;51.730;8.762;2024-02-26T14:41:09;99265.31;;;8.66;78.38
72640;BME280;60683;51.730;8.762;2024-02-26T14:43:55;99270.25;;;8.57;78.11
72640;BME280;60683;51.730;8.762;2024-02-26T14:46:41;99270.00;;;8.59;78.55
72640;BME280;60683;51.730;8.762;2024-02-26T14:49:28;99278.53;;;8.56;78.38
72640;BME280;60683;51.730;8.762;2024-02-26T14:52:15;99287.78;;;8.65;79.02